createdAt,value
2022-10-13T00:00:21.180Z,99.06
2022-10-13T00:02:22.739Z,99.11
2022-10-13T00:04:24.162Z,99.13
2022-10-13T00:06:26.084Z,99.12
2022-10-13T00:08:27.167Z,99.12
2022-10-13T00:10:28.766Z,99.12
2022-10-13T00:12:30.248Z,99.09
2022-10-13T00:14:31.987Z,99.1
2022-10-13T00:16:33.621Z,99.08
2022-10-13T00:18:35.403Z,99.04
2022-10-13T00:20:36.864Z,99.02
2022-10-13T00:22:38.314Z,99.06
2022-10-13T00:24:40.059Z,99.07
2022-10-13T00:26:41.176Z,99.08
2022-10-13T00:30:44.638Z,99.15
2022-10-13T00:32:46.368Z,99.15
2022-10-13T00:34:48.329Z,99.15
2022-10-13T00:36:49.943Z,99.16
2022-10-13T00:38:51.171Z,99.14
2022-10-13T00:40:52.850Z,99.12
2022-10-13T00:42:54.585Z,99.13
2022-10-13T00:44:56.036Z,99.11
2022-10-13T00:46:57.293Z,99.14
2022-10-13T00:48:58.657Z,99.15
2022-10-13T00:50:59.798Z,99.15
2022-10-13T00:53:01.769Z,99.14
2022-10-13T00:55:03.126Z,99.13
2022-10-13T00:57:04.475Z,99.14
2022-10-13T00:59:05.613Z,99.14
2022-10-13T01:01:07.619Z,99.1
2022-10-13T01:03:09.321Z,99.06
2022-10-13T01:05:10.842Z,99.04
2022-10-13T01:07:12.790Z,99.06
2022-10-13T01:09:13.957Z,99.06
2022-10-13T01:13:16.688Z,99.1
2022-10-13T01:15:18.158Z,99.11
2022-10-13T01:17:20.044Z,99.13
2022-10-13T01:19:21.334Z,99.15
2022-10-13T01:21:22.762Z,99.16
2022-10-13T01:23:24.120Z,99.15
2022-10-13T01:25:25.695Z,99.16
2022-10-13T01:27:27.575Z,99.19
2022-10-13T01:29:28.890Z,99.17
2022-10-13T01:31:30.111Z,99.23
2022-10-13T01:33:31.434Z,99.24
2022-10-13T01:35:33.191Z,99.23
2022-10-13T01:37:34.485Z,99.25
2022-10-13T01:39:35.779Z,99.25
2022-10-13T01:41:37.262Z,99.24
2022-10-13T01:45:40.050Z,99.24
2022-10-13T01:47:41.159Z,99.23
2022-10-13T01:49:42.755Z,99.22
2022-10-13T01:51:44.381Z,99.21
2022-10-13T01:55:47.650Z,99.21
2022-10-13T01:57:49.474Z,99.21
2022-10-13T01:59:50.643Z,99.18
2022-10-13T02:01:52.349Z,99.16
2022-10-13T02:03:53.625Z,99.18
2022-10-13T02:05:55.343Z,99.16
2022-10-13T02:07:56.653Z,99.17
2022-10-13T02:09:57.955Z,99.16
2022-10-13T02:11:59.475Z,99.16
2022-10-13T02:14:01.386Z,99.18
2022-10-13T02:16:02.393Z,99.17
2022-10-13T02:18:03.425Z,99.17
2022-10-13T02:20:04.734Z,99.18
2022-10-13T02:22:05.845Z,99.18
2022-10-13T02:24:07.078Z,99.19
2022-10-13T02:26:08.463Z,99.2
2022-10-13T02:28:10.082Z,99.22
2022-10-13T02:30:11.368Z,99.25
2022-10-13T02:32:12.418Z,99.24
2022-10-13T02:34:13.808Z,99.27
2022-10-13T02:36:15.393Z,99.27
2022-10-13T02:38:17.218Z,99.25
2022-10-13T02:40:18.823Z,99.21
2022-10-13T02:44:21.253Z,99.16
2022-10-13T02:46:22.801Z,99.18
2022-10-13T02:48:24.177Z,99.23
2022-10-13T02:50:25.770Z,99.24
2022-10-13T02:54:28.699Z,99.24
2022-10-13T02:56:30.513Z,99.24
2022-10-13T02:58:32.300Z,99.24
2022-10-13T03:00:33.733Z,99.26
2022-10-13T03:02:35.078Z,99.29
2022-10-13T03:04:36.878Z,99.29
2022-10-13T03:06:38.557Z,99.29
2022-10-13T03:08:40.284Z,99.27
2022-10-13T03:10:41.859Z,99.3
2022-10-13T03:12:43.182Z,99.29
2022-10-13T03:14:44.386Z,99.29
2022-10-13T03:16:45.606Z,99.31
2022-10-13T03:18:46.918Z,99.31
2022-10-13T03:20:48.490Z,99.33
2022-10-13T03:22:50.129Z,99.32
2022-10-13T03:24:51.114Z,99.34
2022-10-13T03:26:52.517Z,99.34
2022-10-13T03:28:53.792Z,99.34
2022-10-13T03:30:55.551Z,99.34
2022-10-13T03:32:56.628Z,99.37
2022-10-13T03:34:57.957Z,99.35
2022-10-13T03:36:59.319Z,99.36
2022-10-13T03:39:00.962Z,99.38
2022-10-13T03:41:02.210Z,99.38
2022-10-13T03:43:03.474Z,99.4
2022-10-13T03:45:04.795Z,99.41
2022-10-13T03:47:06.229Z,99.4
2022-10-13T03:49:07.990Z,99.4
2022-10-13T03:51:09.769Z,99.41
2022-10-13T03:53:11.711Z,99.42
2022-10-13T03:55:12.878Z,99.4
2022-10-13T03:57:14.708Z,99.41
2022-10-13T03:59:16.573Z,99.41
2022-10-13T04:01:18.247Z,99.41
2022-10-13T04:03:19.596Z,99.43
2022-10-13T04:05:20.971Z,99.42
2022-10-13T04:09:23.495Z,99.41
2022-10-13T04:11:24.571Z,99.41
2022-10-13T04:13:26.084Z,99.43
2022-10-13T04:15:27.148Z,99.4
2022-10-13T04:19:29.587Z,99.44
2022-10-13T04:21:30.981Z,99.45
2022-10-13T04:23:32.251Z,99.44
2022-10-13T04:25:33.236Z,99.46
2022-10-13T04:27:34.902Z,99.45
2022-10-13T04:29:36.419Z,99.44
2022-10-13T04:31:37.536Z,99.47
2022-10-13T04:33:39.343Z,99.45
2022-10-13T04:37:45.035Z,99.43
2022-10-13T04:39:43.994Z,99.44
2022-10-13T04:41:45.744Z,99.42
2022-10-13T04:43:46.716Z,99.42
2022-10-13T04:45:47.707Z,99.42
2022-10-13T04:47:48.772Z,99.43
2022-10-13T04:49:50.246Z,99.47
2022-10-13T04:51:51.411Z,99.49
2022-10-13T04:53:52.927Z,99.47
2022-10-13T04:55:54.746Z,99.49
2022-10-13T04:57:56.162Z,99.5
2022-10-13T04:59:57.942Z,99.49
2022-10-13T05:01:58.999Z,99.47
2022-10-13T05:04:00.007Z,99.47
2022-10-13T05:08:03.036Z,99.46
2022-10-13T05:10:04.113Z,99.49
2022-10-13T05:12:05.594Z,99.49
2022-10-13T05:14:06.981Z,99.5
2022-10-13T05:18:10.255Z,99.5
2022-10-13T05:20:11.316Z,99.47
2022-10-13T05:22:12.420Z,99.46
2022-10-13T05:24:13.875Z,99.46
2022-10-13T05:26:15.452Z,99.49
2022-10-13T05:28:16.981Z,99.5
2022-10-13T05:30:18.784Z,99.5
2022-10-13T05:34:21.770Z,99.54
2022-10-13T05:36:22.770Z,99.53
2022-10-13T05:38:25.983Z,99.56
2022-10-13T05:40:25.438Z,99.58
2022-10-13T05:42:27.201Z,99.61
2022-10-13T05:44:28.195Z,99.59
2022-10-13T05:46:29.249Z,99.63
2022-10-13T05:48:30.515Z,99.65
2022-10-13T05:50:32.109Z,99.66
2022-10-13T05:52:33.680Z,99.68
2022-10-13T05:54:34.981Z,99.66
2022-10-13T05:56:35.996Z,99.64
2022-10-13T05:58:37.341Z,99.62
2022-10-13T06:00:38.523Z,99.61
2022-10-13T06:02:39.482Z,99.56
2022-10-13T06:04:40.921Z,99.56
2022-10-13T06:06:42.037Z,99.56
2022-10-13T06:08:43.439Z,99.53
2022-10-13T06:10:45.146Z,99.5
2022-10-13T06:12:46.514Z,99.48
2022-10-13T06:14:47.837Z,99.46
2022-10-13T06:16:49.754Z,99.45
2022-10-13T06:18:51.493Z,99.48
2022-10-13T06:20:53.019Z,99.48
2022-10-13T06:22:54.168Z,99.53
2022-10-13T06:27:40.859Z,99.53
2022-10-13T06:29:42.256Z,99.51
2022-10-13T06:31:43.423Z,99.54
2022-10-13T06:33:45.263Z,99.53
2022-10-13T06:37:48.148Z,99.53
2022-10-13T06:39:49.887Z,99.54
2022-10-13T06:41:50.984Z,99.52
2022-10-13T06:43:52.006Z,99.54
2022-10-13T06:45:53.218Z,99.54
2022-10-13T06:47:54.152Z,99.51
2022-10-13T06:49:55.508Z,99.54
2022-10-13T06:51:57.137Z,99.56
2022-10-13T06:53:58.121Z,99.55
2022-10-13T06:56:08.728Z,99.57
2022-10-13T06:58:01.166Z,99.55
2022-10-13T07:00:02.803Z,99.61
2022-10-13T07:02:03.872Z,99.59
2022-10-13T07:04:05.300Z,99.63
2022-10-13T07:06:06.632Z,99.6
2022-10-13T07:08:07.778Z,99.62
2022-10-13T07:10:09.593Z,99.65
2022-10-13T07:12:11.332Z,99.63
2022-10-13T07:14:12.410Z,99.62
2022-10-13T07:16:14.337Z,99.59
2022-10-13T07:20:16.970Z,99.5
2022-10-13T07:22:18.246Z,99.55
2022-10-13T07:26:20.813Z,99.45
2022-10-13T07:28:22.647Z,99.47
2022-10-13T07:30:24.277Z,99.44
2022-10-13T07:32:25.522Z,99.43
2022-10-13T07:36:28.008Z,99.48
2022-10-13T07:38:29.228Z,99.49
2022-10-13T07:40:30.684Z,99.53
2022-10-13T07:42:32.434Z,99.48
2022-10-13T07:44:33.506Z,99.47
2022-10-13T07:46:34.937Z,99.48
2022-10-13T07:48:36.681Z,99.5
2022-10-13T07:50:37.626Z,99.43
2022-10-13T07:52:38.643Z,99.51
2022-10-13T07:54:39.731Z,99.49
2022-10-13T07:56:41.250Z,99.59
2022-10-13T07:58:42.850Z,99.59
2022-10-13T08:00:44.641Z,99.61
2022-10-13T08:02:46.403Z,99.46
2022-10-13T08:04:47.459Z,99.37
2022-10-13T08:06:48.821Z,99.36
2022-10-13T08:08:49.735Z,99.35
2022-10-13T08:10:50.887Z,99.35
2022-10-13T08:12:52.506Z,99.43
2022-10-13T08:14:53.516Z,99.37
2022-10-13T08:18:55.947Z,99.1
2022-10-13T08:21:10.779Z,99.09
2022-10-13T08:22:58.871Z,99.07
2022-10-13T08:25:00.437Z,98.96
2022-10-13T08:29:20.528Z,99.02
2022-10-13T08:31:04.977Z,98.99
2022-10-13T08:33:06.795Z,98.86
2022-10-13T08:35:07.801Z,98.7
2022-10-13T08:37:08.962Z,98.52
2022-10-13T08:39:10.261Z,98.38
2022-10-13T08:41:11.620Z,97.79
2022-10-13T08:43:13.013Z,97.18
2022-10-13T08:45:40.701Z,96.55
2022-10-13T08:47:17.055Z,96.46
2022-10-13T08:51:20.119Z,94.32
2022-10-13T08:53:21.481Z,91.59
2022-10-13T08:55:23.262Z,91.06
2022-10-13T08:57:25.040Z,91.61
2022-10-13T09:01:27.398Z,88.75
2022-10-13T09:03:29.125Z,90.16
2022-10-13T09:05:30.810Z,90.11
2022-10-13T09:07:32.471Z,90.18
2022-10-13T09:09:33.652Z,89.03
2022-10-13T09:11:35.160Z,88.89
2022-10-13T09:13:36.771Z,88.78
2022-10-13T09:15:38.194Z,88.88
2022-10-13T09:17:39.091Z,90.22
2022-10-13T09:19:40.420Z,91.31
2022-10-13T09:21:42.221Z,89.91
2022-10-13T09:23:43.910Z,87.85
2022-10-13T09:25:44.804Z,89
2022-10-13T09:27:45.645Z,88.99
2022-10-13T09:29:46.832Z,88.92
2022-10-13T09:33:49.910Z,85.43
2022-10-13T09:35:51.350Z,87.67
2022-10-13T09:37:53.051Z,85.48
2022-10-13T09:39:54.292Z,84.67
2022-10-13T09:43:57.034Z,84.23
2022-10-13T09:45:58.717Z,81.98
2022-10-13T09:48:00.361Z,82.08
2022-10-13T09:50:09.784Z,82.44
2022-10-13T09:52:03.280Z,82.14
2022-10-13T09:54:04.170Z,80.88
2022-10-13T09:56:05.111Z,79.75
2022-10-13T10:00:07.106Z,83.02
2022-10-13T10:02:08.779Z,79.66
2022-10-13T10:04:10.028Z,79.36
2022-10-13T10:08:12.458Z,77.74
2022-10-13T10:10:13.994Z,79.36
2022-10-13T10:12:14.974Z,76.06
2022-10-13T10:14:16.196Z,75.19
2022-10-13T10:16:17.621Z,76.83
2022-10-13T10:18:19.368Z,77.6
2022-10-13T10:20:20.821Z,76.58
2022-10-13T10:22:22.379Z,74.93
2022-10-13T10:24:23.607Z,74.76
2022-10-13T10:26:26.666Z,74.62
2022-10-13T10:28:26.209Z,75.51
2022-10-13T10:32:29.047Z,72.5
2022-10-13T10:34:30.617Z,73.15
2022-10-13T10:36:31.653Z,72.34
2022-10-13T10:38:32.551Z,71.42
2022-10-13T10:42:34.541Z,69.1
2022-10-13T10:44:35.670Z,73.97
2022-10-13T10:46:36.383Z,75.44
2022-10-13T10:48:37.661Z,76.9
2022-10-13T10:50:38.533Z,71.7
2022-10-13T10:52:39.839Z,71.05
2022-10-13T10:54:43.936Z,72.01
2022-10-13T10:56:42.636Z,71.14
2022-10-13T10:58:43.931Z,71.68
2022-10-13T11:00:45.173Z,73.33
2022-10-13T11:02:46.383Z,72.03
2022-10-13T11:04:47.856Z,72.73
2022-10-13T11:06:49.237Z,73.13
2022-10-13T11:08:50.835Z,72.12
2022-10-13T11:10:52.481Z,72.27
2022-10-13T11:14:55.274Z,72.88
2022-10-13T11:16:56.307Z,74.13
2022-10-13T11:18:57.634Z,73.8
2022-10-13T11:20:58.679Z,74.47
2022-10-13T11:25:02.019Z,74.7
2022-10-13T11:27:03.005Z,75.37
2022-10-13T11:29:04.866Z,75.77
2022-10-13T11:31:06.517Z,76.62
2022-10-13T11:33:07.979Z,75.73
2022-10-13T11:35:08.754Z,75.52
2022-10-13T11:37:10.017Z,76.55
2022-10-13T11:39:11.414Z,77.04
2022-10-13T11:41:12.771Z,77.24
2022-10-13T11:43:14.268Z,76.39
2022-10-13T11:45:15.919Z,77.35
2022-10-13T11:47:16.973Z,77.91
2022-10-13T11:49:17.881Z,79.06
2022-10-13T11:51:19.243Z,79.27
2022-10-13T11:53:20.495Z,79
2022-10-13T11:55:21.967Z,79.17
2022-10-13T11:57:23.023Z,79.37
2022-10-13T11:59:24.534Z,79.97
2022-10-13T12:01:26.039Z,80.42
2022-10-13T12:03:27.162Z,80.44
2022-10-13T12:05:28.516Z,80.36
2022-10-13T12:07:29.670Z,80.68
2022-10-13T12:09:31.426Z,80.92
2022-10-13T12:11:32.569Z,81.21
2022-10-13T12:13:33.775Z,81.92
2022-10-13T12:15:35.037Z,82.27
2022-10-13T12:17:36.240Z,82.68
2022-10-13T12:19:37.714Z,82.65
2022-10-13T12:23:40.803Z,83.42
2022-10-13T12:25:42.518Z,83.61
2022-10-13T12:27:44.240Z,83.32
2022-10-13T12:29:46.060Z,83.06
2022-10-13T12:31:47.451Z,83.5
2022-10-13T12:33:48.928Z,83.64
2022-10-13T12:35:50.314Z,83.78
2022-10-13T12:37:51.560Z,83.28
2022-10-13T12:39:52.859Z,83.47
2022-10-13T12:41:54.593Z,82.36
2022-10-13T12:43:55.772Z,82.13
2022-10-13T12:45:57.228Z,82.17
2022-10-13T12:47:58.465Z,80.02
2022-10-13T12:50:00.160Z,80.66
2022-10-13T12:52:01.433Z,81.05
2022-10-13T12:54:02.476Z,80.37
2022-10-13T12:56:03.564Z,81.24
2022-10-13T12:58:04.794Z,82.14
2022-10-13T13:00:05.733Z,81.25
2022-10-13T13:02:06.835Z,82.25
2022-10-13T13:06:08.775Z,82.12
2022-10-13T13:08:10.003Z,82.29
2022-10-13T13:10:54.695Z,82.55
2022-10-13T13:12:56.506Z,82.87
2022-10-13T13:14:57.982Z,82.74
2022-10-13T13:16:59.842Z,83.1
2022-10-13T13:18:59.993Z,83.38
2022-10-13T13:21:01.541Z,83.66
2022-10-13T13:23:03.189Z,83.84
2022-10-13T13:25:04.348Z,83.57
2022-10-13T13:27:05.803Z,83.86
2022-10-13T13:29:07.032Z,83.81
2022-10-13T13:31:07.957Z,83.65
2022-10-13T13:33:09.125Z,82.97
2022-10-13T13:35:10.327Z,83.6
2022-10-13T13:37:11.463Z,83.14
2022-10-13T13:39:13.170Z,82.15
2022-10-13T13:41:14.691Z,81.9
2022-10-13T13:43:16.043Z,81.48
2022-10-13T13:45:17.519Z,82.22
2022-10-13T13:47:18.906Z,81.77
2022-10-13T13:49:19.783Z,81.68
2022-10-13T13:51:21.200Z,81.05
2022-10-13T13:53:22.365Z,80.37
2022-10-13T13:55:23.702Z,80.04
2022-10-13T13:59:26.503Z,79.12
2022-10-13T14:01:28.055Z,80.25
2022-10-13T14:03:29.117Z,80.45
2022-10-13T14:05:30.453Z,80.82
2022-10-13T14:07:32.327Z,81.81
2022-10-13T14:09:33.649Z,81.12
2022-10-13T14:11:34.979Z,80.92
2022-10-13T14:13:36.065Z,81.38
2022-10-13T14:15:37.095Z,81.11
2022-10-13T14:17:38.351Z,81.42
2022-10-13T14:19:39.417Z,81.54
2022-10-13T14:21:40.277Z,81.23
2022-10-13T14:23:42.059Z,81.14
2022-10-13T14:25:42.986Z,80.87
2022-10-13T14:27:44.295Z,81.02
2022-10-13T14:31:46.500Z,82.02
2022-10-13T14:33:52.039Z,82.1
2022-10-13T14:35:49.490Z,81.69
2022-10-13T14:37:51.187Z,81.92
2022-10-13T14:41:54.162Z,82.05
2022-10-13T14:43:55.253Z,82.31
2022-10-13T14:45:56.483Z,82.92
2022-10-13T14:47:57.625Z,83.09
2022-10-13T14:49:58.574Z,83.33
2022-10-13T14:52:00.011Z,83.43
2022-10-13T14:54:01.656Z,83.71
2022-10-13T14:56:03.386Z,83.27
2022-10-13T14:58:04.577Z,82.22
2022-10-13T15:00:06.224Z,82.11
2022-10-13T15:02:07.886Z,82.08
2022-10-13T15:04:09.691Z,82.02
2022-10-13T15:06:11.537Z,82.21
2022-10-13T15:08:13.350Z,82.18
2022-10-13T15:10:14.489Z,82.34
2022-10-13T15:12:15.656Z,82.26
2022-10-13T15:14:16.912Z,82.8
2022-10-13T15:16:18.375Z,83.22
2022-10-13T15:18:20.006Z,82.72
2022-10-13T15:20:21.165Z,82.54
2022-10-13T15:22:23.406Z,82.85
2022-10-13T15:24:24.706Z,83.4
2022-10-13T15:26:25.745Z,83.15
2022-10-13T15:30:29.224Z,83.05
2022-10-13T15:32:30.923Z,83.63
2022-10-13T15:34:31.887Z,83.26
2022-10-13T15:36:33.265Z,82.86
2022-10-13T15:40:36.961Z,83.8
2022-10-13T15:42:38.725Z,84.15
2022-10-13T15:45:04.855Z,83.97
2022-10-13T15:46:53.870Z,83.88
2022-10-13T15:48:42.445Z,84.4
2022-10-13T15:50:43.679Z,84.34
2022-10-13T15:52:44.950Z,84.51
2022-10-13T15:54:45.890Z,84.97
2022-10-13T15:56:47.425Z,84.88
2022-10-13T15:58:48.411Z,85.24
2022-10-13T16:00:50.126Z,85.54
2022-10-13T16:02:51.026Z,86.03
2022-10-13T16:04:52.567Z,86.45
2022-10-13T16:06:54.208Z,86.61
2022-10-13T16:08:55.580Z,86.66
2022-10-13T16:10:57.204Z,86.9
2022-10-13T16:12:58.271Z,86.95
2022-10-13T16:14:59.311Z,87.01
2022-10-13T16:17:01.031Z,86.93
2022-10-13T16:19:02.698Z,86.82
2022-10-13T16:21:04.139Z,86.74
2022-10-13T16:23:05.679Z,86.55
2022-10-13T16:25:07.119Z,86.63
2022-10-13T16:27:08.832Z,86.46
2022-10-13T16:29:10.565Z,86.39
2022-10-13T16:31:11.927Z,86.71
2022-10-13T16:33:13.119Z,86.75
2022-10-13T16:35:14.812Z,86.95
2022-10-13T16:37:16.429Z,86.96
2022-10-13T16:39:17.799Z,87.11
2022-10-13T16:41:19.285Z,87.22
2022-10-13T16:43:20.597Z,87.29
2022-10-13T16:45:30.804Z,87.82
2022-10-13T16:47:23.185Z,88.31
2022-10-13T16:49:23.596Z,88.48
2022-10-13T16:51:25.055Z,88.89
2022-10-13T16:55:27.421Z,89.99
2022-10-13T16:57:29.240Z,90.19
2022-10-13T17:01:32.016Z,90.28
2022-10-13T17:03:33.276Z,90.26
2022-10-13T17:05:34.643Z,90.36
2022-10-13T17:07:36.336Z,90.39
2022-10-13T17:11:39.145Z,90.7
2022-10-13T17:13:40.399Z,90.71
2022-10-13T17:15:41.560Z,90.91
2022-10-13T17:17:43.127Z,91.06
2022-10-13T17:19:44.439Z,91.14
2022-10-13T17:21:46.226Z,91.69
2022-10-13T17:23:48.710Z,91.77
2022-10-13T17:25:49.766Z,91.82
2022-10-13T17:27:51.214Z,92.14
2022-10-13T17:29:52.873Z,92.29
2022-10-13T17:31:53.882Z,92.13
2022-10-13T17:33:55.177Z,91.94
2022-10-13T17:35:56.889Z,92.01
2022-10-13T17:37:58.724Z,92.22
2022-10-13T17:40:00.036Z,93.11
2022-10-13T17:42:01.860Z,93.15
2022-10-13T17:44:03.543Z,92.92
2022-10-13T17:46:24.255Z,92.81
2022-10-13T17:48:06.415Z,93.45
2022-10-13T17:50:08.094Z,93.67
2022-10-13T17:54:15.521Z,93.96
2022-10-13T17:56:12.858Z,93.92
2022-10-13T17:58:14.459Z,94
2022-10-13T18:00:16.265Z,94.1
2022-10-13T18:02:17.457Z,94.18
2022-10-13T18:04:18.814Z,94.47
2022-10-13T18:06:20.104Z,94.44
2022-10-13T18:08:21.137Z,94.54
2022-10-13T18:10:22.591Z,94.55
2022-10-13T18:12:23.820Z,94.53
2022-10-13T18:14:24.777Z,94.61
2022-10-13T18:16:26.441Z,94.57
2022-10-13T18:18:27.839Z,94.52
2022-10-13T18:20:29.659Z,94.49
2022-10-13T18:22:30.965Z,94.52
2022-10-13T18:24:32.134Z,94.48
2022-10-13T18:26:33.169Z,94.37
2022-10-13T18:28:34.645Z,94.61
2022-10-13T18:30:36.144Z,94.81
2022-10-13T18:32:37.721Z,94.95
2022-10-13T18:36:40.291Z,95.11
2022-10-13T18:38:41.246Z,95.11
2022-10-13T18:40:42.746Z,95.03
2022-10-13T18:42:46.779Z,95.24
2022-10-13T18:44:45.964Z,95.21
2022-10-13T18:46:47.507Z,95.23
2022-10-13T18:48:49.222Z,95.32
2022-10-13T18:50:51.086Z,95.41
2022-10-13T18:52:52.938Z,95.51
2022-10-13T18:54:54.457Z,95.47
2022-10-13T18:56:55.741Z,95.69
2022-10-13T18:58:59.417Z,95.72
2022-10-13T19:00:57.943Z,95.71
2022-10-13T19:02:58.981Z,95.62
2022-10-13T19:05:00.709Z,95.63
2022-10-13T19:07:02.107Z,95.65
2022-10-13T19:09:03.471Z,95.74
2022-10-13T19:11:04.994Z,95.75
2022-10-13T19:13:06.397Z,95.73
2022-10-13T19:15:07.662Z,95.68
2022-10-13T19:19:09.755Z,95.33
2022-10-13T19:21:11.553Z,95.12
2022-10-13T19:23:13.306Z,94.95
2022-10-13T19:25:15.034Z,94.97
2022-10-13T19:27:16.577Z,95.34
2022-10-13T19:29:18.020Z,95.55
2022-10-13T19:31:19.623Z,95.84
2022-10-13T19:33:20.810Z,95.62
2022-10-13T19:35:22.017Z,95.63
2022-10-13T19:37:23.563Z,95.7
2022-10-13T19:39:24.919Z,95.79
2022-10-13T19:41:26.298Z,95.64
2022-10-13T19:43:27.257Z,95.47
2022-10-13T19:45:28.747Z,95.3
2022-10-13T19:47:30.026Z,95.1
2022-10-13T19:49:31.026Z,95.17
2022-10-13T19:51:32.121Z,95.37
2022-10-13T19:53:33.453Z,95.48
2022-10-13T19:56:19.129Z,95.4
2022-10-13T19:58:20.474Z,95.39
2022-10-13T20:00:21.454Z,95.37
2022-10-13T20:02:22.965Z,95.26
2022-10-13T20:04:24.826Z,95.11
2022-10-13T20:06:26.060Z,95.04
2022-10-13T20:08:27.319Z,95.07
2022-10-13T20:12:29.824Z,94.86
2022-10-13T20:14:31.416Z,94.9
2022-10-13T20:16:32.644Z,94.86
2022-10-13T20:18:34.178Z,95.28
2022-10-13T20:20:35.353Z,95.49
2022-10-13T20:22:36.575Z,95.54
2022-10-13T20:24:37.744Z,95.59
2022-10-13T20:26:39.592Z,95.74
2022-10-13T20:28:42.976Z,95.79
2022-10-13T20:30:42.200Z,95.82
2022-10-13T20:32:43.323Z,95.87
2022-10-13T20:34:44.996Z,95.97
2022-10-13T20:36:46.834Z,95.93
2022-10-13T20:38:47.927Z,95.88
2022-10-13T20:40:49.287Z,95.83
2022-10-13T20:42:51.054Z,95.84
2022-10-13T20:44:52.846Z,95.78
2022-10-13T20:46:54.171Z,95.79
2022-10-13T20:49:10.240Z,95.65
2022-10-13T20:50:57.219Z,95.06
2022-10-13T20:54:59.622Z,95.57
2022-10-13T20:57:00.510Z,95.71
2022-10-13T20:59:02.323Z,95.75
2022-10-13T21:01:03.534Z,95.82
2022-10-13T21:03:04.929Z,95.82
2022-10-13T21:05:06.424Z,96.04
2022-10-13T21:07:07.871Z,96.04
2022-10-13T21:09:09.209Z,95.91
2022-10-13T21:11:10.346Z,95.76
2022-10-13T21:13:11.352Z,95.61
2022-10-13T21:15:12.334Z,95.52
2022-10-13T21:17:14.005Z,95.46
2022-10-13T21:19:15.599Z,95.39
2022-10-13T21:21:17.077Z,95.33
2022-10-13T21:23:18.349Z,95.32
2022-10-13T21:25:19.366Z,95.2
2022-10-13T21:27:21.338Z,95.09
2022-10-13T21:29:22.828Z,95.06
2022-10-13T21:31:24.600Z,95.01
2022-10-13T21:37:29.198Z,94.72
2022-10-13T21:39:30.486Z,94.69
2022-10-13T21:43:33.290Z,94.7
2022-10-13T21:45:34.284Z,94.67
2022-10-13T21:47:35.515Z,94.65
2022-10-13T21:49:36.882Z,94.63
2022-10-13T21:53:38.971Z,94.62
2022-10-13T21:55:39.871Z,94.64
2022-10-13T21:57:41.718Z,94.68
2022-10-13T21:59:43.232Z,94.66
2022-10-13T22:01:44.353Z,94.66
2022-10-13T22:03:46.157Z,94.7
2022-10-13T22:05:47.149Z,94.68
2022-10-13T22:07:48.582Z,94.63
2022-10-13T22:09:49.827Z,94.67
2022-10-13T22:11:55.596Z,94.71
2022-10-13T22:13:52.150Z,94.76
2022-10-13T22:15:53.329Z,94.83
2022-10-13T22:17:54.558Z,94.88
2022-10-13T22:19:55.965Z,94.97
2022-10-13T22:21:57.273Z,95
2022-10-13T22:23:58.325Z,95.04
2022-10-13T22:26:00.201Z,95.1
2022-10-13T22:28:02.047Z,95.13
2022-10-13T22:30:03.589Z,95.15
2022-10-13T22:32:05.145Z,95.19
2022-10-13T22:36:07.487Z,95.22
2022-10-13T22:38:09.265Z,95.25
2022-10-13T22:40:11.163Z,95.22
2022-10-13T22:42:12.816Z,95.25
2022-10-13T22:44:14.048Z,95.22
2022-10-13T22:46:15.707Z,95.16
2022-10-13T22:48:17.484Z,95.2
2022-10-13T22:50:18.319Z,95.28
2022-10-13T22:52:19.926Z,95.48
2022-10-13T22:54:20.956Z,95.68
2022-10-13T22:56:22.013Z,95.81
2022-10-13T22:58:23.366Z,95.97
2022-10-13T23:00:24.788Z,95.88
2022-10-13T23:02:25.741Z,95.66
2022-10-13T23:04:27.182Z,95.58
2022-10-13T23:08:29.168Z,95.31
2022-10-13T23:10:30.830Z,95.24
2022-10-13T23:12:32.028Z,95.1
2022-10-13T23:14:33.495Z,95.14
2022-10-13T23:18:36.411Z,94.19
2022-10-13T23:20:38.239Z,93.28
2022-10-13T23:22:39.967Z,92.82
2022-10-13T23:24:41.746Z,92.44
2022-10-13T23:26:42.844Z,92.6
2022-10-13T23:28:44.085Z,92.68
2022-10-13T23:30:45.702Z,92.86
2022-10-13T23:32:47.131Z,92.8
2022-10-13T23:34:48.502Z,92.39
2022-10-13T23:36:50.367Z,92.07
2022-10-13T23:38:51.493Z,91.87
2022-10-13T23:40:52.865Z,91.84
2022-10-13T23:42:54.091Z,91.87
2022-10-13T23:44:55.619Z,92.06
2022-10-13T23:46:56.697Z,92.18
2022-10-13T23:50:59.683Z,92.68
2022-10-13T23:53:01.465Z,92.99
2022-10-13T23:55:02.970Z,92.97
2022-10-13T23:57:04.196Z,92.91
